Government of Jersey

Home Log in

METAR EGJJ 211120Z VRB02KT CAVOK 22/17 Q1017

METAR EGJB 211120Z VRB03KT CAVOK 21/16 Q1017

METAR EGJA 211120Z 06012KT 9999 FEW007 19/16 Q1017

METAR LFRD 211100Z AUTO VRB03KT 3800 BR OVC004 18/17 Q1017 BECMG 8000 NSW BKN006

METAR LFRC 211100Z AUTO 09007KT 050V120 CAVOK 20/16 Q1017 NOSIG